Tiempo atmosférico en la estación meteorológica de Autilla del Pino, Palencia (874 m.)



Fecha
DESCASC
Temp. máxima en grados centígrados (hora)
DESCASC
Temp. mínima en grados centígrados (hora)
DESCASC
Temp. media en grados centígrados
DESCASC
Racha de viento máxima en m/sg (hora)
DESCASC
Velocidad máxima media en intervalos de 10 minutos(hora)
DESCASC
Precipitaciones diarias en mm
DESCASC
Precipitaciones de 00:00 a 06:00 en mm
DESCASC
Precipitaciones de 06:00 a 12:00 en mm
DESCASC
Precipitaciones de 12:00 a 18:00 en mm
DESCASC
Precipitaciones de 18:00 a 24:00 en mm
DESCASC
06-07-2020 29 (17:00) 14.2 (23:59) 21.6 12.78 (23:10) 9.72 (23:20) 0 0 0 0 0
05-07-2020 32.7 (19:10) 13.9 (07:00) 23.3 8.61 (23:10) 6.39 (23:10) 0 0 0 0 0
04-07-2020 30.2 (17:30) 8.9 (07:00) 19.6 8.33 (00:20) 6.11 (00:20) 0 0 0 0 0
03-07-2020 24.5 (18:20) 8.5 (06:50) 16.5 11.94 (11:30) 8.33 (00:40) 0 0 0 0 0
02-07-2020 27.7 (16:40) 10.1 (00:00) 18.9 13.06 (20:40) 9.17 (21:10) 0 0 0 0 0
01-07-2020 31.8 (16:40) 13 (00:00) 22.4 13.61 (16:40) 8.61 (18:10) 0 0 0 0 0
30-06-2020 34.3 (17:50) 13.9 (00:00) 24.1 10.83 (02:10) 7.22 (02:20) 0 0 0 0 0
29-06-2020 30.6 (16:50) 12.5 (00:00) 21.6 8.89 (23:59) 6.67 (23:59) 0 0 0 0 0
28-06-2020 29.8 (18:40) 11.9 (00:00) 20.8 11.11 (15:50) 6.11 (23:10) 0 0 0 0 0
27-06-2020 27.2 (18:00) 11.1 (00:00) 19.2 13.33 (03:30) 6.39 (17:20) 0 0 0 0 0
26-06-2020 26.7 (16:50) 13.6 (00:00) 20.2 16.11 (13:00) 7.78 (19:00) 0 0 0 0 0
25-06-2020 29 (15:30) 14.6 (00:00) 21.8 10.28 (17:20) 6.11 (04:20) 9.2 0 0.6 2.2 6.4
24-06-2020 31.6 (13:40) 16.8 (00:00) 24.2 12.5 (22:20) 8.89 (14:40) 0.9 0 0 0 0.9
23-06-2020 35.6 (19:00) 13.8 (00:00) 24.7 11.11 (16:40) 5.83 (06:00) 0 0 0 0 0
22-06-2020 31.1 (17:30) 12.2 (00:00) 21.7 10.56 (00:20) 7.5 (03:20) 0 0 0 0 0
21-06-2020 29.5 (18:30) 8.2 (00:00) 18.8 11.39 (22:30) 7.78 (23:50) 0 0 0 0 0
20-06-2020 28.9 (17:40) 7.3 (00:00) 18.1 8.61 (15:20) 5.56 (23:59) 0 0 0 0 0
19-06-2020 26.7 (17:20) 7.2 (00:00) 17 9.72 (16:40) 5.28 (00:20) 0 0 0 0 0
18-06-2020 23.9 (19:00) 7.5 (06:30) 15.7 8.33 (18:40) 5.83 (23:50) 0 0 0 0 0
17-06-2020 21.5 (18:50) 8 (00:00) 14.8 10 (13:00) 5.28 (23:59) 0 0 0 0 0
16-06-2020 21.1 (14:20) 8.2 (00:00) 14.7 14.17 (18:00) 9.72 (18:10) 2 0 0 0.3 1.7
15-06-2020 21.6 (15:10) 4.9 (00:00) 13.3 9.17 (18:10) 6.11 (20:50) 0 0 0 0 0
14-06-2020 20.2 (15:30) 5.2 (00:00) 12.7 12.5 (20:30) 6.67 (15:40) 0 0 0 0 0
13-06-2020 18.2 (16:30) 6.4 (00:00) 12.3 12.5 (16:30) 8.61 (16:50) 0 0 0 0 0
12-06-2020 16.6 (15:50) 6.4 (00:00) 11.5 16.94 (14:40) 11.39 (15:10) 1.3 0 0 1.3 0
11-06-2020 20.3 (15:50) 5.9 (00:00) 13.1 17.22 (17:40) 13.06 (17:40) 0 0 0 0 0
10-06-2020 22.6 (15:20) 5.1 (00:00) 13.9 7.78 (17:50) 5.28 (00:40) 0 0 0 0 0
09-06-2020 18.9 (16:40) 4.4 (00:00) 11.6 9.17 (23:30) 5.56 (23:30) 0 0 0 0 0

Gráficas

Temp. máximas Temp. mínimas Temp. medias Precipitaciones Rachas de viento máximas Velocidades máximas media en intervalos de 10 minutos

Datos horarios

Fecha y hora oficial Temperatura (ºC) Velocidad del viento (km/h) Dirección del viento Racha (km/h) Dirección de racha Precipitación (mm) Presión (hPa) Tendencia (hPa) Humedad (%)
2020-07-08 23:00:00 18.8 10 Este 26 Oeste 0.1 -- -- 70
2020-07-08 22:00:00 22.7 26 Este 45 Sudeste 0 -- -- 49
2020-07-08 21:00:00 22.5 18 Este 33 Este 0 -- -- 55
2020-07-08 20:00:00 22.5 21 Este 43 Este 0 -- -- 52
2020-07-08 19:00:00 22.8 26 Este 36 Este 0.1 -- -- 55
2020-07-08 18:00:00 21.4 19 Este 46 Nordeste 0.4 -- -- 61
2020-07-08 17:00:00 23.5 6 Norte 59 Sudoeste 3.8 -- -- 63
2020-07-08 16:00:00 28.5 17 Nordeste 25 Nordeste 0 -- -- 37
2020-07-08 15:00:00 29.2 8 Este 19 Sudeste 0 -- -- 37
2020-07-08 14:00:00 27.6 14 Este 21 Sudeste 0 -- -- 41
2020-07-08 13:00:00 27.3 15 Este 22 Sudeste 0 -- -- 42
2020-07-08 12:00:00 24.4 12 Este 25 Sudeste 0 -- -- 47
2020-07-08 11:00:00 22.3 18 Este 28 Este 0 -- -- 51
2020-07-08 10:00:00 19 14 Este 28 Este 0 -- -- 61
2020-07-08 09:00:00 18 17 Este 26 Este 0 -- -- 62
2020-07-08 08:00:00 17.2 21 Este 29 Este 0 -- -- 64
2020-07-08 07:00:00 15.3 17 Este 28 Este 0 -- -- 69
2020-07-08 06:00:00 15.9 18 Este 26 Este 0 -- -- 68
2020-07-08 05:00:00 16 18 Este 25 Este 0 -- -- 67
2020-07-08 04:00:00 15.8 22 Este 25 Este 0 -- -- 67
2020-07-08 03:00:00 17 21 Este 26 Este 0 -- -- 63
2020-07-08 02:00:00 17.9 21 Este 28 Este 0 -- -- 58
2020-07-08 01:00:00 19.7 22 Este 27 Este 0 -- -- 50
2020-07-08 00:00:00 21 20 Este 30 Este 0 -- -- 44
2020-07-07 23:00:00 23.4 22 Este 31 Este 0 -- -- 37
2020-07-07 22:00:00 25.1 19 Este 31 Este 0 -- -- 33
2020-07-07 21:00:00 29.4 18 Este 26 Sudeste 0 -- -- 27
2020-07-07 20:00:00 31.9 13 Nordeste 19 Nordeste 0 -- -- 26
2020-07-07 19:00:00 32.7 9 Nordeste 26 Nordeste 0 -- -- 26
2020-07-07 18:00:00 33.2 11 Norte 23 Nordeste 0 -- -- 26
2020-07-07 17:00:00 32.3 14 Nordeste 24 Nordeste 0 -- -- 26
2020-07-07 16:00:00 32.1 13 Nordeste 24 Sudeste 0 -- -- 27
2020-07-07 15:00:00 30.4 6 Nordeste 21 Este 0 -- -- 31
2020-07-07 14:00:00 28.8 6 Este 19 Este 0 -- -- 32
2020-07-07 13:00:00 27.2 11 Este 19 Este 0 -- -- 34
2020-07-07 12:00:00 23.9 13 Este 22 Este 0 -- -- 41
2020-07-07 11:00:00 20 13 Este 21 Este 0 -- -- 51
2020-07-07 10:00:00 17.1 15 Este 23 Este 0 -- -- 59
2020-07-07 09:00:00 14.1 14 Este 22 Este 0 -- -- 68
2020-07-07 08:00:00 11.3 16 Nordeste 22 Nordeste 0 -- -- 81
2020-07-07 07:00:00 9.8 13 Este 21 Nordeste 0 -- -- 87
2020-07-07 06:00:00 9.9 13 Nordeste 20 Este 0 -- -- 85
2020-07-07 05:00:00 10.7 14 Este 33 Este 0 -- -- 82
2020-07-07 04:00:00 11.3 26 Este 36 Este 0 -- -- 80
2020-07-07 03:00:00 11.9 28 Este 42 Este 0 -- -- 79
2020-07-07 02:00:00 12.3 31 Este 44 Este 0 -- -- 82
2020-07-07 01:00:00 13 31 Este 45 Este 0 -- -- 81
2020-07-07 00:00:00 14.2 27 Este 46 Nordeste 0 -- -- 78
2020-07-06 23:00:00 16 32 Este 44 Este 0 -- -- 70
2020-07-06 22:00:00 18 28 Este 43 Este 0 -- -- 58
2020-07-06 21:00:00 21.8 27 Este 41 Nordeste 0 -- -- 46
2020-07-06 20:00:00 24.4 28 Nordeste 39 Nordeste 0 -- -- 43
2020-07-06 19:00:00 26.9 24 Nordeste 41 Este 0 -- -- 38
2020-07-06 18:00:00 27.7 25 Nordeste 39 Nordeste 0 -- -- 39
2020-07-06 17:00:00 28.2 24 Este 36 Nordeste 0 -- -- 38
2020-07-06 16:00:00 27.7 22 Este 34 Nordeste 0 -- -- 39
2020-07-06 15:00:00 26.9 21 Nordeste 35 Este 0 -- -- 41
2020-07-06 14:00:00 25.4 22 Este 37 Este 0 -- -- 45
2020-07-06 13:00:00 23.5 25 Este 39 Este 0 -- -- 52
2020-07-06 12:00:00 22.9 27 Nordeste 39 Nordeste 0 -- -- 55
2020-07-06 11:00:00 22.3 25 Este 37 Nordeste 0 -- -- 59
2020-07-06 10:00:00 19.1 29 Este 42 Este 0 -- -- 69
2020-07-06 09:00:00 16.7 31 Nordeste 41 Este 0 -- -- 78
2020-07-06 08:00:00 15.4 31 Este 39 Este 0 -- -- 83
2020-07-06 07:00:00 14.5 23 Este 29 Este 0 -- -- 89
2020-07-06 06:00:00 14.6 21 Este 30 Este 0 -- -- 88
2020-07-06 05:00:00 15 23 Este 30 Este 0 -- -- 87
2020-07-06 04:00:00 15.7 25 Este 38 Este 0 -- -- 84
2020-07-06 03:00:00 16.8 27 Nordeste 36 Este 0 -- -- 79
2020-07-06 02:00:00 17.7 26 Este 38 Este 0 -- -- 77
2020-07-06 01:00:00 19 25 Este 33 Este 0 -- -- 74
2020-07-06 00:00:00 20.7 23 Este 31 Este 0 -- -- 70
2020-07-05 23:00:00 22.6 22 Nordeste 28 Nordeste 0 -- -- 62
2020-07-05 22:00:00 25.1 18 Nordeste 27 Nordeste 0 -- -- 49
2020-07-05 21:00:00 29.1 14 Nordeste 23 Nordeste 0 -- -- 34
2020-07-05 20:00:00 31.2 10 Nordeste 20 Este 0 -- -- 29
2020-07-05 19:00:00 31.2 10 Nordeste 20 Nordeste 0 -- -- 28
2020-07-05 18:00:00 32.1 8 Este 20 Nordeste 0 -- -- 29
2020-07-05 17:00:00 31.6 11 Nordeste 23 Nordeste 0 -- -- 31
2020-07-05 16:00:00 30.1 8 Nordeste 25 Noroeste 0 -- -- 32
2020-07-05 15:00:00 30 8 Norte 23 Nordeste 0 -- -- 34
2020-07-05 14:00:00 29.1 11 Nordeste 26 Nordeste 0 -- -- 35
2020-07-05 13:00:00 28.1 10 Nordeste 26 Nordeste 0 -- -- 37
2020-07-05 12:00:00 26.8 13 Este 26 Sudeste 0 -- -- 39
2020-07-05 11:00:00 24.8 12 Este 28 Este 0 -- -- 45
2020-07-05 10:00:00 21.7 21 Este 27 Este 0 -- -- 50
2020-07-05 09:00:00 18.4 17 Este 21 Este 0 -- -- 59
2020-07-05 08:00:00 16.2 17 Este 20 Este 0 -- -- 65
2020-07-05 07:00:00 14.1 15 Este 20 Este 0 -- -- 68
2020-07-05 06:00:00 14.2 16 Este 21 Este 0 -- -- 66
2020-07-05 05:00:00 15.6 17 Este 25 Este 0 -- -- 62
2020-07-05 04:00:00 15.6 18 Este 24 Este 0 -- -- 63
2020-07-05 03:00:00 15.9 21 Este 25 Este 0 -- -- 62
2020-07-05 02:00:00 16.6 20 Este 28 Este 0 -- -- 60
2020-07-05 01:00:00 17.9 20 Este 28 Este 0 -- -- 57
2020-07-05 00:00:00 18.5 17 Este 55 Este 0 -- -- 52
2020-07-04 23:00:00 20.3 17 Nordeste 26 Este 0 -- -- 45
2020-07-04 22:00:00 22.3 17 Nordeste 27 Este 0 -- -- 37
2020-07-04 21:00:00 26.5 15 Nordeste 24 Nordeste 0 -- -- 27
2020-07-04 20:00:00 28.1 17 Nordeste 27 Nordeste 0 -- -- 23
2020-07-04 19:00:00 29.3 10 Nordeste 25 Nordeste 0 -- -- 22
2020-07-04 18:00:00 29 10 Nordeste 23 Norte 0 -- -- 22
2020-07-04 17:00:00 29.3 6 Este 21 Norte 0 -- -- 21
2020-07-04 16:00:00 27.6 9 Nordeste 21 Nordeste 0 -- -- 21
2020-07-04 15:00:00 26.4 10 Norte 19 Norte 0 -- -- 22
2020-07-04 14:00:00 25.4 5 Norte 18 Nordeste 0 -- -- 27
2020-07-04 13:00:00 24.9 3 Noroeste 19 Norte 0 -- -- 33
2020-07-04 12:00:00 22.2 4 Norte 19 Nordeste 0 -- -- 37
2020-07-04 11:00:00 20.4 9 Nordeste 16 Este 0 -- -- 38
2020-07-04 10:00:00 17.1 10 Nordeste 18 Este 0 -- -- 46
2020-07-04 09:00:00 15.4 9 Nordeste 14 Nordeste 0 -- -- 57
2020-07-04 08:00:00 12.1 10 Nordeste 17 Este 0 -- -- 73
2020-07-04 07:00:00 9 13 Este 19 Este 0 -- -- 87
2020-07-04 06:00:00 9.4 15 Este 24 Este 0 -- -- 86
2020-07-04 05:00:00 9.9 12 Este 19 Este 0 -- -- 86
2020-07-04 04:00:00 10.8 15 Este 23 Este 0 -- -- 83
2020-07-04 03:00:00 11.2 19 Este 26 Este 0 -- -- 81
2020-07-04 02:00:00 12.4 18 Este 28 Este 0 -- -- 74
2020-07-04 01:00:00 13.7 20 Este 30 Este 0 -- -- 64
2020-07-04 00:00:00 16 18 Este 30 Este 0 -- -- 50
2020-07-03 23:00:00 15.7 13 Este 22 Este 0 -- -- 43
2020-07-03 22:00:00 17.5 10 Este 12 Nordeste 0 -- -- 35
2020-07-03 21:00:00 22.3 9 Nordeste 17 Nordeste 0 -- -- 29
2020-07-03 20:00:00 23.2 11 Nordeste 19 Nordeste 0 -- -- 27
2020-07-03 19:00:00 24 10 Nordeste 21 Nordeste 0 -- -- 27
2020-07-03 18:00:00 24.3 10 Nordeste 22 Nordeste 0 -- -- 28
2020-07-03 17:00:00 23.6 12 Nordeste 31 Nordeste 0 -- -- 30
2020-07-03 16:00:00 22.7 15 Norte 30 Nordeste 0 -- -- 31
2020-07-03 15:00:00 22.4 11 Norte 29 Norte 0 -- -- 35
2020-07-03 14:00:00 21.4 16 Nordeste 29 Norte 0 -- -- 38
2020-07-03 13:00:00 20.2 12 Nordeste 27 Este 0 -- -- 42
2020-07-03 12:00:00 18.6 16 Nordeste 43 Este 0 -- -- 45
2020-07-03 11:00:00 17.3 19 Este 34 Este 0 -- -- 50
2020-07-03 10:00:00 14.8 24 Este 38 Este 0 -- -- 58
2020-07-03 09:00:00 12.4 29 Este 39 Este 0 -- -- 71
2020-07-03 08:00:00 10.6 22 Este 32 Este 0 -- -- 81
2020-07-03 07:00:00 8.9 22 Este 35 Este 0 -- -- 89
2020-07-03 06:00:00 8.8 23 Este 36 Este 0 -- -- 90
2020-07-03 05:00:00 9.3 25 Este 34 Este 0 -- -- 89
2020-07-03 04:00:00 9.5 23 Este 34 Este 0 -- -- 90
2020-07-03 03:00:00 9.7 22 Este 37 Nordeste 0 -- -- 89
2020-07-03 02:00:00 10.2 24 Nordeste 39 Nordeste 0 -- -- 87
2020-07-03 01:00:00 10.4 26 Este 41 Este 0 -- -- 85
2020-07-03 00:00:00 10.7 30 Nordeste 45 Nordeste 0 -- -- 81
2020-07-02 23:00:00 11.5 32 Nordeste 44 Este 0 -- -- 76
2020-07-02 22:00:00 12.6 33 Nordeste 46 Este 0 -- -- 73
2020-07-02 21:00:00 16 30 Nordeste 47 Nordeste 0 -- -- 60
2020-07-02 20:00:00 19.1 32 Nordeste 42 Este 0 -- -- 50
2020-07-02 19:00:00 22.4 9 Norte 31 Oeste 0 -- -- 31
2020-07-02 18:00:00 26.8 18 Oeste 32 Oeste 0 -- -- 24
2020-07-02 17:00:00 27.1 18 Oeste 32 Oeste 0 -- -- 27
2020-07-02 16:00:00 25.9 18 Oeste 34 Oeste 0 -- -- 30
2020-07-02 15:00:00 25.6 15 Oeste 34 Oeste 0 -- -- 33
2020-07-02 14:00:00 23.9 11 Noroeste 27 Oeste 0 -- -- 37
2020-07-02 13:00:00 22.8 12 Noroeste 26 Oeste 0 -- -- 42
2020-07-02 12:00:00 21.4 13 Oeste 21 Oeste 0 -- -- 47
2020-07-02 11:00:00 20.3 3 Oeste 21 Noroeste 0 -- -- 51
2020-07-02 10:00:00 19.1 4 Sudoeste 12 Sudeste 0 -- -- 62
2020-07-02 09:00:00 15.9 5 Este 10 Este 0 -- -- 76
2020-07-02 08:00:00 13.8 0 Calma 6 Nordeste 0 -- -- 97
2020-07-02 07:00:00 13 3 Norte 6 Norte 0 -- -- 98
2020-07-02 06:00:00 10.2 5 Noroeste 8 Norte 0 -- -- 98
2020-07-02 05:00:00 11.4 5 Nordeste 7 Nordeste 0 -- -- 98
2020-07-02 04:00:00 11.7 3 Nordeste 9 Nordeste 0 -- -- 97
2020-07-02 03:00:00 11.9 5 Nordeste 13 Nordeste 0 -- -- 97
2020-07-02 02:00:00 13 10 Nordeste 19 Nordeste 0 -- -- 97
2020-07-02 01:00:00 13.9 14 Nordeste 20 Nordeste 0 -- -- 95
2020-07-02 00:00:00 14.8 15 Nordeste 19 Nordeste 0 -- -- 92
2020-07-01 23:00:00 16.3 14 Nordeste 28 Nordeste 0 -- -- 87
2020-07-01 22:00:00 18.2 20 Nordeste 36 Noroeste 0 -- -- 76
2020-07-01 21:00:00 26.8 28 Oeste 43 Oeste 0 -- -- 27
2020-07-01 20:00:00 28.5 27 Oeste 41 Oeste 0 -- -- 22
2020-07-01 19:00:00 30.1 28 Oeste 47 Oeste 0 -- -- 22
2020-07-01 18:00:00 30.6 27 Oeste 45 Oeste 0 -- -- 22
2020-07-01 17:00:00 31.4 21 Oeste 49 Oeste 0 -- -- 24
2020-07-01 16:00:00 31.1 22 Oeste 43 Oeste 0 -- -- 26
2020-07-01 15:00:00 29.9 17 Oeste 37 Oeste 0 -- -- 30
2020-07-01 14:00:00 28.9 18 Oeste 35 Oeste 0 -- -- 35
2020-07-01 13:00:00 26.3 16 Oeste 33 Oeste 0 -- -- 44
2020-07-01 12:00:00 25.4 13 Oeste 24 Noroeste 0 -- -- 48
2020-07-01 11:00:00 23.5 9 Noroeste 19 Noroeste 0 -- -- 55
2020-07-01 10:00:00 22.2 4 Noroeste 10 Norte 0 -- -- 61
2020-07-01 09:00:00 19.1 5 Noroeste 9 Noroeste 0 -- -- 76
2020-07-01 08:00:00 16.1 7 Noroeste 12 Noroeste 0 -- -- 92
2020-07-01 07:00:00 13.3 9 Noroeste 11 Noroeste 0 -- -- 92
2020-07-01 06:00:00 13.7 6 Oeste 10 Este 0 -- -- 89
2020-07-01 05:00:00 15.4 6 Este 12 Este 0 -- -- 84
2020-07-01 04:00:00 16.6 9 Este 14 Este 0 -- -- 75
2020-07-01 03:00:00 17.4 10 Este 14 Este 0 -- -- 72
2020-07-01 02:00:00 18.5 9 Nordeste 20 Este 0 -- -- 65
2020-07-01 01:00:00 20.1 15 Este 23 Este 0 -- -- 58
2020-07-01 00:00:00 20.6 9 Nordeste 29 Este 0 -- -- 51
2020-06-30 23:00:00 23.3 14 Nordeste 24 Noroeste 0 -- -- 42
2020-06-30 22:00:00 27.9 16 Oeste 23 Oeste 0 -- -- 26
2020-06-30 21:00:00 30.6 7 Noroeste 24 Noroeste 0 -- -- 27
2020-06-30 20:00:00 30.9 12 Noroeste 30 Oeste 0 -- -- 26
2020-06-30 19:00:00 32.4 17 Oeste 27 Noroeste 0 -- -- 26
2020-06-30 18:00:00 31.8 17 Oeste 32 Noroeste 0 -- -- 26
2020-06-30 17:00:00 31.4 12 Noroeste 26 Noroeste 0 -- -- 28
2020-06-30 16:00:00 31.5 9 Oeste 28 Oeste 0 -- -- 28
2020-06-30 15:00:00 29.9 4 Noroeste 22 Norte 0 -- -- 32
2020-06-30 14:00:00 31 4 Nordeste 17 Este 0 -- -- 34
2020-06-30 13:00:00 29.4 6 Este 18 Nordeste 0 -- -- 36
2020-06-30 12:00:00 26.6 9 Este 21 Este 0 -- -- 40
2020-06-30 11:00:00 24.5 11 Este 21 Nordeste 0 -- -- 41
2020-06-30 10:00:00 21.6 14 Este 26 Este 0 -- -- 44
2020-06-30 09:00:00 18.3 19 Este 27 Este 0 -- -- 51
2020-06-30 08:00:00 16.5 18 Este 24 Este 0 -- -- 55
2020-06-30 07:00:00 14.6 17 Este 22 Este 0 -- -- 58
2020-06-30 06:00:00 14.4 16 Este 27 Este 0 -- -- 55
2020-06-30 05:00:00 15.1 20 Este 28 Este 0 -- -- 51
2020-06-30 04:00:00 15.5 21 Este 34 Este 0 -- -- 57
2020-06-30 03:00:00 15.8 22 Este 39 Este 0 -- -- 58
2020-06-30 02:00:00 16.6 24 Este 32 Este 0 -- -- 62
2020-06-30 01:00:00 17.2 25 Este 35 Este 0 -- -- 71
2020-06-30 00:00:00 18.6 24 Este 32 Este 0 -- -- 68
2020-06-29 23:00:00 20.1 15 Este 29 Este 0 -- -- 60
2020-06-29 22:00:00 22.4 18 Este 28 Este 0 -- -- 48
2020-06-29 21:00:00 25.7 19 Este 29 Nordeste 0 -- -- 40
2020-06-29 20:00:00 27.8 13 Nordeste 24 Nordeste 0 -- -- 36
2020-06-29 19:00:00 28.9 10 Norte 22 Nordeste 0 -- -- 34
2020-06-29 18:00:00 29.3 10 Nordeste 23 Nordeste 0 -- -- 34
2020-06-29 17:00:00 30 8 Norte 28 Sudoeste 0 -- -- 33
2020-06-29 16:00:00 28.7 8 Noroeste 24 Sudeste 0 -- -- 35
2020-06-29 15:00:00 27.7 5 Sudoeste 22 Norte 0 -- -- 39
2020-06-29 14:00:00 26.3 0 Calma 17 Noroeste 0 -- -- 43
2020-06-29 13:00:00 25.6 2 Noroeste 20 Nordeste 0 -- -- 47
2020-06-29 12:00:00 23 5 Este 17 Este 0 -- -- 53
2020-06-29 11:00:00 21.2 6 Nordeste 15 Este 0 -- -- 61
2020-06-29 10:00:00 19.2 9 Este 22 Sudeste 0 -- -- 70
2020-06-29 09:00:00 16.5 12 Este 19 Este 0 -- -- 83
2020-06-29 08:00:00 14.7 12 Nordeste 16 Nordeste 0 -- -- 94
2020-06-29 07:00:00 12.9 10 Nordeste 18 Este 0 -- -- 98
2020-06-29 06:00:00 13 15 Este 19 Este 0 -- -- 98
2020-06-29 05:00:00 13.4 14 Este 22 Este 0 -- -- 96
2020-06-29 04:00:00 13.7 13 Nordeste 20 Este 0 -- -- 95
2020-06-29 03:00:00 14.2 14 Nordeste 24 Nordeste 0 -- -- 93
2020-06-29 02:00:00 14.8 14 Nordeste 25 Este 0 -- -- 91
2020-06-29 01:00:00 15.5 16 Nordeste 23 Este 0 -- -- 89
2020-06-29 00:00:00 16.5 15 Nordeste 30 Nordeste 0 -- -- 85
2020-06-28 23:00:00 18.7 18 Norte 28 Nordeste 0 -- -- 71
2020-06-28 22:00:00 23.8 5 Noroeste 13 Noroeste 0 -- -- 41
2020-06-28 21:00:00 27.4 10 Noroeste 22 Oeste 0 -- -- 35
2020-06-28 20:00:00 29.2 9 Oeste 22 Noroeste 0 -- -- 33
2020-06-28 19:00:00 29.5 14 Oeste 27 Oeste 0 -- -- 32
2020-06-28 18:00:00 28.7 11 Oeste 32 Noroeste 0 -- -- 34
2020-06-28 17:00:00 28.6 14 Oeste 35 Oeste 0 -- -- 34
2020-06-28 16:00:00 28 18 Noroeste 40 Noroeste 0 -- -- 34
2020-06-28 15:00:00 26.9 12 Noroeste 31 Oeste 0 -- -- 37
2020-06-28 14:00:00 25.5 14 Oeste 31 Oeste 0 -- -- 41
2020-06-28 13:00:00 24.3 12 Oeste 28 Oeste 0 -- -- 45
2020-06-28 12:00:00 22.7 11 Oeste 21 Noroeste 0 -- -- 49
2020-06-28 11:00:00 21 6 Sudoeste 19 Oeste 0 -- -- 55
2020-06-28 10:00:00 18.9 9 Noroeste 18 Oeste 0 -- -- 61
2020-06-28 09:00:00 17.2 12 Oeste 18 Oeste 0 -- -- 71
2020-06-28 08:00:00 15.1 10 Oeste 14 Noroeste 0 -- -- 85
2020-06-28 07:00:00 12.8 11 Oeste 15 Oeste 0 -- -- 93
2020-06-28 06:00:00 12.5 9 Oeste 13 Noroeste 0 -- -- 91
2020-06-28 05:00:00 12.7 10 Noroeste 13 Noroeste 0 -- -- 90
2020-06-28 04:00:00 13.8 11 Oeste 18 Noroeste 0 -- -- 85
2020-06-28 03:00:00 14.9 12 Noroeste 18 Noroeste 0 -- -- 81
2020-06-28 02:00:00 15.2 13 Oeste 17 Oeste 0 -- -- 79
2020-06-28 01:00:00 16.4 13 Noroeste 21 Noroeste 0 -- -- 73
2020-06-28 00:00:00 17.7 15 Noroeste 21 Noroeste 0 -- -- 67
2020-06-27 23:00:00 19.2 12 Noroeste 19 Noroeste 0 -- -- 60
2020-06-27 22:00:00 20.6 12 Oeste 20 Oeste 0 -- -- 53
2020-06-27 21:00:00 23 16 Oeste 23 Oeste 0 -- -- 44
2020-06-27 20:00:00 26.4 10 Noroeste 23 Oeste 0 -- -- 37
2020-06-27 19:00:00 26.6 12 Oeste 31 Oeste 0 -- -- 36
2020-06-27 18:00:00 26 19 Oeste 35 Oeste 0 -- -- 38
2020-06-27 17:00:00 25.3 18 Oeste 35 Oeste 0 -- -- 41
2020-06-27 16:00:00 24.9 18 Oeste 33 Oeste 0 -- -- 41
2020-06-27 15:00:00 24.5 17 Oeste 31 Oeste 0 -- -- 44
2020-06-27 14:00:00 23.1 13 Sudoeste 31 Oeste 0 -- -- 48
2020-06-27 13:00:00 20.9 15 Oeste 31 Oeste 0 -- -- 53
2020-06-27 12:00:00 20.1 13 Oeste 21 Oeste 0 -- -- 57
2020-06-27 11:00:00 19.6 10 Oeste 22 Oeste 0 -- -- 61
2020-06-27 10:00:00 17.5 12 Oeste 22 Sudoeste 0 -- -- 72
2020-06-27 09:00:00 15.2 13 Sudoeste 18 Sudoeste 0 -- -- 85
2020-06-27 08:00:00 13.3 10 Sudoeste 13 Sudoeste 0 -- -- 93
2020-06-27 07:00:00 11.5 9 Sudoeste 13 Sudoeste 0 -- -- 97
2020-06-27 06:00:00 12.7 11 Oeste 17 Oeste 0 -- -- 93
2020-06-27 05:00:00 13.3 15 Oeste 25 Oeste 0 -- -- 88
2020-06-27 04:00:00 14.2 16 Oeste 48 Oeste 0 -- -- 82
2020-06-27 03:00:00 15 18 Oeste 24 Oeste 0 -- -- 79
2020-06-27 02:00:00 15 15 Noroeste 21 Noroeste 0 -- -- 74
2020-06-27 01:00:00 16 15 Oeste 21 Oeste 0 -- -- 68
2020-06-27 00:00:00 16.8 14 Oeste 26 Oeste 0 -- -- 61
2020-06-26 23:00:00 18.7 19 Oeste 31 Oeste 0 -- -- 54
2020-06-26 22:00:00 19.3 14 Oeste 30 Oeste 0 -- -- 45
2020-06-26 21:00:00 23 20 Oeste 36 Oeste 0 -- -- 35
2020-06-26 20:00:00 23.6 22 Oeste 37 Oeste 0 -- -- 30
2020-06-26 19:00:00 24.1 28 Oeste 48 Oeste 0 -- -- 28
2020-06-26 18:00:00 25.2 23 Oeste 39 Oeste 0 -- -- 26
2020-06-26 17:00:00 26.7 18 Oeste 43 Oeste 0 -- -- 29
2020-06-26 16:00:00 25.1 21 Sudoeste 42 Sudoeste 0 -- -- 34
2020-06-26 15:00:00 24.4 20 Sudoeste 35 Oeste 0 -- -- 42
2020-06-26 14:00:00 22.8 19 Sudoeste 32 Sudoeste 0 -- -- 51
2020-06-26 13:00:00 22.7 18 Sudoeste 58 Sudoeste 0 -- -- 56
2020-06-26 12:00:00 22.8 14 Sudoeste 24 Sudoeste 0 -- -- 61
2020-06-26 11:00:00 20.1 10 Sudoeste 20 Sudoeste 0 -- -- 81
2020-06-26 10:00:00 17.6 8 Sudoeste 14 Sudoeste 0 -- -- 88
2020-06-26 09:00:00 16.8 10 Sudoeste -- -- -- -- -- 89
2020-06-26 08:00:00 15.7 4 Sudeste 12 Sur 0 -- -- 92
2020-06-26 07:00:00 13.7 4 Sudeste 11 Sur 0 -- -- 93
2020-06-26 06:00:00 14.4 3 Sudeste 13 Sudeste 0 -- -- 91
2020-06-26 05:00:00 14.5 10 Sudeste 18 Sudeste 0 -- -- 91
2020-06-26 04:00:00 14.7 10 Este 18 Sudeste 0 -- -- 90
2020-06-26 03:00:00 15.2 14 Este 18 Este 0 -- -- 88
2020-06-26 02:00:00 16 14 Sudeste 19 Sudeste 0 -- -- 87
2020-06-26 01:00:00 16.5 13 Sudeste 21 Sudeste 0 -- -- 87
2020-06-26 00:00:00 16.7 14 Sudeste 19 Sudeste 0 -- -- 94
2020-06-25 23:00:00 16.8 13 Este 14 Nordeste 0 -- -- 95
2020-06-25 22:00:00 17.5 10 Nordeste 13 Sudeste 0 -- -- 93
2020-06-25 21:00:00 18.8 10 Sudeste 17 Este 0.5 -- -- 90
2020-06-25 20:00:00 18 14 Sudeste 26 Este 5.9 -- -- 91
2020-06-25 19:00:00 24.4 17 Este 27 Sudeste 0 -- -- 48
2020-06-25 18:00:00 25.5 15 Sudeste 37 Sudeste 0 -- -- 47
2020-06-25 17:00:00 28.4 3 Noroeste 19 Norte 0 -- -- 41
2020-06-25 16:00:00 27.4 8 Norte 20 Norte 0 -- -- 43
2020-06-25 15:00:00 26.7 4 Norte 10 Nordeste 0 -- -- 48
2020-06-25 14:00:00 22.3 3 Sudeste 21 Sudeste 1.8 -- -- 73
2020-06-25 13:00:00 23.6 13 Sudeste 23 Sudeste 0.4 -- -- 62
2020-06-25 12:00:00 23.3 14 Este 30 Este 0 -- -- 55
2020-06-25 11:00:00 22.6 18 Este 31 Este 0 -- -- 58
2020-06-25 10:00:00 19.6 16 Este 23 Este 0 -- -- 71
2020-06-25 09:00:00 18.1 9 Nordeste 27 Este 0.6 -- -- 85
2020-06-25 08:00:00 17.3 11 Nordeste 19 Nordeste 0 -- -- 78
2020-06-25 07:00:00 15.5 14 Este 22 Este 0 -- -- 81
2020-06-25 06:00:00 15.6 15 Este 20 Este 0 -- -- 81
2020-06-25 05:00:00 16.2 16 Este 30 Este 0 -- -- 79
2020-06-25 04:00:00 16.1 13 Este 24 Este 0 -- -- 80
2020-06-25 03:00:00 16.4 19 Este 24 Este 0 -- -- 81
2020-06-25 02:00:00 16.8 9 Este 22 Nordeste 0 -- -- 79
2020-06-25 01:00:00 17 10 Nordeste 21 Norte 0 -- -- 81
2020-06-25 00:00:00 17.3 16 Este 39 Nordeste 0.7 -- -- 79
2020-06-24 23:00:00 17.7 19 Norte 45 Noroeste 0 -- -- 79
2020-06-24 22:00:00 20.2 8 Noroeste 23 Noroeste 0.2 -- -- 64
2020-06-24 21:00:00 24.1 10 Noroeste 21 Noroeste 0 -- -- 37
2020-06-24 20:00:00 26 12 Noroeste 32 Oeste 0 -- -- 35
2020-06-24 19:00:00 27.9 14 Oeste 31 Oeste 0 -- -- 34
2020-06-24 18:00:00 28.6 6 Sudoeste 18 Este 0 -- -- 33
2020-06-24 17:00:00 27.9 4 Nordeste 16 Sudoeste 0 -- -- 34
2020-06-24 16:00:00 27.1 14 Sudoeste 27 Sur 0 -- -- 37
2020-06-24 15:00:00 26.2 19 Sudoeste 42 Sudoeste 0 -- -- 37
2020-06-24 14:00:00 29.8 11 Sur 24 Sudeste 0 -- -- 33
2020-06-24 13:00:00 28.9 6 Sudeste 14 Sudeste 0 -- -- 37
2020-06-24 12:00:00 24.8 9 Este 16 Este 0 -- -- 47
2020-06-24 11:00:00 22.3 10 Este 17 Sudeste 0 -- -- 54
2020-06-24 10:00:00 21 10 Sudeste 21 Este 0 -- -- 55
2020-06-24 09:00:00 19.2 17 Este 24 Sudeste 0 -- -- 57
2020-06-24 08:00:00 20.5 18 Sudeste 24 Sudeste 0 -- -- 54
2020-06-24 07:00:00 17 13 Este 19 Sudeste 0 -- -- 59
2020-06-24 06:00:00 18 14 Sudeste 19 Sudeste 0 -- -- 57
2020-06-24 05:00:00 18.6 15 Sudeste 20 Sudeste 0 -- -- 57
2020-06-24 04:00:00 18.2 15 Este 19 Este 0 -- -- 56
2020-06-24 03:00:00 18.8 14 Este 21 Sudeste 0 -- -- 49
2020-06-24 02:00:00 20.1 14 Este 19 Este 0 -- -- 44
2020-06-24 01:00:00 24 12 Sudeste 23 Sudeste 0 -- -- 35
2020-06-24 00:00:00 25 15 Noroeste 24 Noroeste 0 -- -- 32
2020-06-23 23:00:00 24.9 7 Nordeste 14 Noroeste 0 -- -- 33
2020-06-23 22:00:00 26 9 Oeste 18 Oeste 0 -- -- 30
2020-06-23 21:00:00 28.4 11 Sur 30 Sur 0 -- -- 26
2020-06-23 20:00:00 33.3 11 Norte 22 Noroeste 0 -- -- 21
2020-06-23 19:00:00 34.6 10 Oeste 31 Noroeste 0 -- -- 21
2020-06-23 18:00:00 35 10 Oeste 23 Noroeste 0 -- -- 22
2020-06-23 17:00:00 33.9 11 Noroeste 40 Sudoeste 0 -- -- 22
2020-06-23 16:00:00 34.3 13 Noroeste 29 Noroeste 0 -- -- 24
2020-06-23 15:00:00 33.3 9 Noroeste 28 Noroeste 0 -- -- 25
2020-06-23 14:00:00 32.6 6 Noroeste 18 Nordeste 0 -- -- 29
2020-06-23 13:00:00 30.1 8 Noroeste 28 Nordeste 0 -- -- 32
2020-06-23 12:00:00 28.8 5 Nordeste 13 Este 0 -- -- 35
2020-06-23 11:00:00 26 8 Este 21 Este 0 -- -- 41
2020-06-23 10:00:00 21.8 15 Este 21 Este 0 -- -- 51
2020-06-23 09:00:00 19 15 Este 21 Este 0 -- -- 59
2020-06-23 08:00:00 16.8 12 Este 17 Este 0 -- -- 68
2020-06-23 07:00:00 14 14 Este 23 Este 0 -- -- 75
2020-06-23 06:00:00 14.5 21 Este 24 Este 0 -- -- 75
2020-06-23 05:00:00 14.4 18 Este 22 Este 0 -- -- 78
2020-06-23 04:00:00 14.9 19 Este 24 Este 0 -- -- 75
2020-06-23 03:00:00 15.7 19 Este 24 Este 0 -- -- 72
2020-06-23 02:00:00 16.5 19 Este 22 Este 0 -- -- 68
2020-06-23 01:00:00 16.8 16 Este 21 Este 0 -- -- 65
2020-06-23 00:00:00 18.9 18 Este 28 Nordeste 0 -- -- 56
2020-06-22 23:00:00 20.7 16 Este 21 Nordeste 0 -- -- 45
2020-06-22 22:00:00 22.3 15 Nordeste 23 Este 0 -- -- 35
2020-06-22 21:00:00 26.6 17 Nordeste 29 Nordeste 0 -- -- 25
2020-06-22 20:00:00 28.7 20 Nordeste 29 Nordeste 0 -- -- 23
2020-06-22 19:00:00 30 15 Nordeste 30 Este 0 -- -- 22
2020-06-22 18:00:00 30.4 14 Nordeste 26 Este 0 -- -- 21
2020-06-22 17:00:00 30.7 11 Este 23 Este 0 -- -- 22
2020-06-22 16:00:00 29.6 10 Este 27 Este 0 -- -- 23
2020-06-22 15:00:00 28.3 12 Este 27 Este 0 -- -- 24
2020-06-22 14:00:00 27.1 13 Este 27 Este 0 -- -- 26
2020-06-22 13:00:00 25.2 16 Este 28 Este 0 -- -- 30
2020-06-22 12:00:00 23.6 15 Este 32 Este 0 -- -- 41
2020-06-22 11:00:00 20.8 16 Este 27 Sudeste 0 -- -- 54
2020-06-22 10:00:00 18.1 15 Este 23 Este 0 -- -- 67
2020-06-22 09:00:00 15.5 17 Este 23 Este 0 -- -- 81
2020-06-22 08:00:00 13.6 12 Este 24 Este 0 -- -- 89
2020-06-22 07:00:00 12.3 19 Este 30 Este 0 -- -- 92
2020-06-22 06:00:00 12.8 22 Este 33 Este 0 -- -- 92
2020-06-22 05:00:00 12.6 21 Este 36 Este 0 -- -- 92
2020-06-22 04:00:00 12.7 23 Este 37 Nordeste 0 -- -- 92
2020-06-22 03:00:00 13.3 25 Este 34 Nordeste 0 -- -- 90
2020-06-22 02:00:00 13.8 23 Este 37 Este 0 -- -- 88
2020-06-22 01:00:00 14.3 25 Este 38 Este 0 -- -- 87
2020-06-22 00:00:00 14.8 27 Este 41 Este 0 -- -- 83
2020-06-21 23:00:00 16.3 24 Nordeste 41 Este 0 -- -- 75
2020-06-21 22:00:00 18.7 26 Nordeste 37 Nordeste 0 -- -- 64
2020-06-21 21:00:00 24.5 17 Nordeste 25 Nordeste 0 -- -- 35
2020-06-21 20:00:00 27.9 11 Noroeste 20 Norte 0 -- -- 23
2020-06-21 19:00:00 28.3 9 Noroeste 24 Noroeste 0 -- -- 22
2020-06-21 18:00:00 28.9 10 Noroeste 25 Oeste 0 -- -- 22
2020-06-21 17:00:00 29.2 14 Oeste 23 Oeste 0 -- -- 22
2020-06-21 16:00:00 28.1 9 Oeste 28 Oeste 0 -- -- 24
2020-06-21 15:00:00 26.8 14 Oeste 28 Oeste 0 -- -- 25
2020-06-21 14:00:00 25.7 13 Noroeste 25 Oeste 0 -- -- 27
2020-06-21 13:00:00 24.7 14 Noroeste 29 Oeste 0 -- -- 30
2020-06-21 12:00:00 22.6 14 Oeste 25 Oeste 0 -- -- 33
2020-06-21 11:00:00 20.5 14 Oeste 21 Oeste 0 -- -- 39
2020-06-21 10:00:00 18 12 Oeste 19 Oeste 0 -- -- 54
2020-06-21 09:00:00 15.4 8 Oeste 12 Oeste 0 -- -- 72
2020-06-21 08:00:00 11.7 0 Calma 7 Noroeste 0 -- -- 89
2020-06-21 07:00:00 9.9 2 Norte 8 Noroeste 0 -- -- 97
2020-06-21 06:00:00 9.1 6 Noroeste 9 Oeste 0 -- -- 95
2020-06-21 05:00:00 9.5 9 Noroeste 10 Oeste 0 -- -- 89
2020-06-21 04:00:00 10.9 4 Norte 9 Noroeste 0 -- -- 92
2020-06-21 03:00:00 11.8 9 Nordeste 17 Oeste 0 -- -- 82
2020-06-21 02:00:00 13.7 12 Noroeste 23 Noroeste 0 -- -- 56
2020-06-21 01:00:00 16.7 17 Noroeste 28 Noroeste 0 -- -- 44
2020-06-21 00:00:00 19.2 20 Oeste 28 Oeste 0 -- -- 37
2020-06-20 23:00:00 19.2 15 Oeste 23 Oeste 0 -- -- 36
2020-06-20 22:00:00 21.5 14 Oeste 24 Oeste 0 -- -- 30
2020-06-20 21:00:00 25.7 19 Oeste 28 Oeste 0 -- -- 25
2020-06-20 20:00:00 27.4 16 Oeste 27 Oeste 0 -- -- 24
2020-06-20 19:00:00 28.1 15 Oeste 29 Oeste 0 -- -- 24
2020-06-20 18:00:00 28.2 15 Oeste 28 Oeste 0 -- -- 24
2020-06-20 17:00:00 27.5 9 Oeste 28 Oeste 0 -- -- 24
2020-06-20 16:00:00 27.2 16 Oeste 31 Oeste 0 -- -- 25
2020-06-20 15:00:00 26.2 12 Oeste 29 Oeste 0 -- -- 26
2020-06-20 14:00:00 24.8 9 Noroeste 24 Oeste 0 -- -- 31
2020-06-20 13:00:00 23.4 10 Sudoeste 21 Oeste 0 -- -- 34
2020-06-20 12:00:00 21.5 5 Noroeste 15 Oeste 0 -- -- 38
2020-06-20 11:00:00 20.2 0 Calma 9 Sudeste 0 -- -- 42
2020-06-20 10:00:00 17.2 4 Este 13 Nordeste 0 -- -- 50
2020-06-20 09:00:00 14.1 9 Nordeste 13 Nordeste 0 -- -- 61
2020-06-20 08:00:00 11.1 10 Nordeste 16 Nordeste 0 -- -- 75
2020-06-20 07:00:00 7.9 13 Nordeste 15 Nordeste 0 -- -- 91
2020-06-20 06:00:00 7.4 13 Nordeste 15 Este 0 -- -- 91
2020-06-20 05:00:00 9.9 15 Este 18 Este 0 -- -- 83
2020-06-20 04:00:00 9.5 13 Este 22 Este 0 -- -- 79
2020-06-20 03:00:00 11 17 Este 27 Este 0 -- -- 67
2020-06-20 02:00:00 11.9 17 Este 25 Este 0 -- -- 65
2020-06-20 01:00:00 12.6 14 Nordeste 19 Nordeste 0 -- -- 83
2020-06-20 00:00:00 14.7 10 Este 21 Oeste 0 -- -- 56
2020-06-19 23:00:00 18.1 7 Oeste 11 Sudoeste 0 -- -- 36
2020-06-19 22:00:00 20.7 3 Norte 9 Norte 0 -- -- 29
2020-06-19 21:00:00 23.9 6 Norte 18 Oeste 0 -- -- 24
2020-06-19 20:00:00 25.2 14 Noroeste 26 Oeste 0 -- -- 22
2020-06-19 19:00:00 25.7 15 Noroeste 30 Oeste 0 -- -- 21
2020-06-19 18:00:00 25.7 18 Oeste 31 Oeste 0 -- -- 20
2020-06-19 17:00:00 25.8 17 Oeste 35 Oeste 0 -- -- 21
2020-06-19 16:00:00 25.1 15 Oeste 32 Oeste 0 -- -- 21
2020-06-19 15:00:00 23.7 17 Oeste 30 Oeste 0 -- -- 26
2020-06-19 14:00:00 22.4 16 Oeste 30 Oeste 0 -- -- 32
2020-06-19 13:00:00 21.2 13 Oeste 26 Oeste 0 -- -- 39
2020-06-19 12:00:00 19 12 Oeste 23 Oeste 0 -- -- 45
2020-06-19 11:00:00 17.3 5 Oeste 14 Oeste 0 -- -- 57
2020-06-19 10:00:00 15.3 3 Oeste 9 Sudoeste 0 -- -- 66
2020-06-19 09:00:00 12.8 3 Este 14 Sudeste 0 -- -- 77
2020-06-19 08:00:00 10.1 10 Este 15 Este 0 -- -- 91
2020-06-19 07:00:00 7.4 12 Este 18 Este 0 -- -- 98
2020-06-19 06:00:00 7.7 14 Este 26 Este 0 -- -- 98
2020-06-19 05:00:00 8.2 17 Este 26 Este 0 -- -- 98
2020-06-19 04:00:00 8 12 Nordeste 16 Nordeste 0 -- -- 98
2020-06-19 03:00:00 8.3 9 Nordeste 19 Nordeste 0 -- -- 97
2020-06-19 02:00:00 9.7 14 Nordeste 23 Este 0 -- -- 93
2020-06-19 01:00:00 10.4 12 Nordeste 26 Este 0 -- -- 89
2020-06-19 00:00:00 12.9 20 Este 28 Este 0 -- -- 76
2020-06-18 23:00:00 13.5 17 Este 22 Este 0 -- -- 70
2020-06-18 22:00:00 17.1 5 Nordeste 11 Noroeste 0 -- -- 37
2020-06-18 21:00:00 21 6 Noroeste 19 Noroeste 0 -- -- 30
2020-06-18 20:00:00 22.4 10 Noroeste 26 Noroeste 0 -- -- 29
2020-06-18 19:00:00 23.4 7 Oeste 30 Oeste 0 -- -- 29
2020-06-18 18:00:00 21.7 3 Norte 27 Noroeste 0 -- -- 32
2020-06-18 17:00:00 21.7 7 Noroeste 26 Noroeste 0 -- -- 33
2020-06-18 16:00:00 21.8 6 Noroeste 26 Oeste 0 -- -- 34
2020-06-18 15:00:00 22.1 2 Norte 15 Noroeste 0 -- -- 37
2020-06-18 14:00:00 17.9 6 Nordeste 19 Nordeste 0 -- -- 44
2020-06-18 13:00:00 17 5 Nordeste 17 Norte 0 -- -- 50
2020-06-18 12:00:00 16.4 8 Nordeste 19 Nordeste 0 -- -- 55
2020-06-18 11:00:00 14.8 8 Nordeste 16 Norte 0 -- -- 64
2020-06-18 10:00:00 13.4 8 Nordeste 18 Este 0 -- -- 70
2020-06-18 09:00:00 11.5 12 Este 18 Este 0 -- -- 80
2020-06-18 08:00:00 9.7 10 Este 14 Nordeste 0 -- -- 92
2020-06-18 07:00:00 7.9 11 Este 17 Este 0 -- -- 98
2020-06-18 06:00:00 7.8 10 Nordeste 15 Nordeste 0 -- -- 97
2020-06-18 05:00:00 8.2 10 Nordeste 19 Este 0 -- -- 97
2020-06-18 04:00:00 8.7 16 Este 24 Este 0 -- -- 95
2020-06-18 03:00:00 9 15 Nordeste 23 Nordeste 0 -- -- 92
2020-06-18 02:00:00 9.3 12 Nordeste 19 Nordeste 0 -- -- 91
2020-06-18 01:00:00 9.6 18 Nordeste 28 Nordeste 0 -- -- 88
2020-06-18 00:00:00 10.6 19 Nordeste 28 Nordeste 0 -- -- 84
2020-06-17 23:00:00 12.6 15 Nordeste 23 Nordeste 0 -- -- 74
2020-06-17 22:00:00 14.6 14 Nordeste 22 Nordeste 0 -- -- 62
2020-06-17 21:00:00 17.1 5 Noroeste 12 Noroeste 0 -- -- 40
2020-06-17 20:00:00 18.3 8 Noroeste 14 Oeste 0 -- -- 35
2020-06-17 19:00:00 19.8 15 Oeste 23 Oeste 0 -- -- 33
2020-06-17 18:00:00 19 6 Noroeste 18 Sudoeste 0 -- -- 36
2020-06-17 17:00:00 18.4 5 Nordeste 15 Nordeste 0 -- -- 40
2020-06-17 16:00:00 18 0 Calma 17 Noroeste 0 -- -- 41
2020-06-17 15:00:00 17.8 8 Oeste 15 Norte 0 -- -- 42
2020-06-17 14:00:00 18.2 7 Oeste 19 Sudoeste 0 -- -- 43
2020-06-17 13:00:00 17.6 6 Este 36 Este 0 -- -- 47
2020-06-17 12:00:00 16.6 2 Noroeste 14 Noroeste 0 -- -- 55
2020-06-17 11:00:00 14.1 6 Noroeste 14 Noroeste 0 -- -- 64
2020-06-17 10:00:00 13.6 3 Oeste 13 Oeste 0 -- -- 68
2020-06-17 09:00:00 12 8 Este 15 Este 0 -- -- 78
2020-06-17 08:00:00 10 3 Nordeste 5 Nordeste 0 -- -- 90
2020-06-17 07:00:00 8.1 3 Sudeste 5 Sudeste 0 -- -- 96
2020-06-17 06:00:00 8.5 3 Sudeste 17 Este 0 -- -- 97
2020-06-17 05:00:00 8.5 10 Este 15 Este 0 -- -- 97
2020-06-17 04:00:00 8 9 Este 14 Este 0 -- -- 96
2020-06-17 03:00:00 9 10 Este 15 Este 0 -- -- 95
2020-06-17 02:00:00 9 9 Este 14 Este 0 -- -- 94
2020-06-17 01:00:00 9.4 11 Este 21 Este 0 -- -- 94
2020-06-17 00:00:00 9.8 13 Este 21 Este 0 -- -- 94
2020-06-16 23:00:00 11.5 8 Este 21 Norte 0 -- -- 87
2020-06-16 22:00:00 13.4 6 Norte 28 Noroeste 0 -- -- 74
2020-06-16 21:00:00 15.3 19 Noroeste 28 Noroeste 0 -- -- 63
2020-06-16 20:00:00 15.5 13 Oeste 33 Oeste 0.1 -- -- 74
2020-06-16 19:00:00 14.9 17 Oeste 50 Oeste 1.6 -- -- 80
2020-06-16 18:00:00 12.8 33 Oeste 51 Oeste 0.3 -- -- 77
2020-06-16 17:00:00 20 24 Oeste 38 Oeste 0 -- -- 47
2020-06-16 16:00:00 18.2 18 Oeste 44 Oeste 0 -- -- 59
2020-06-16 15:00:00 18.8 23 Sudoeste 36 Sudoeste 0 -- -- 46
2020-06-16 14:00:00 20.4 20 Oeste 32 Oeste 0 -- -- 43
2020-06-16 13:00:00 18.4 19 Oeste 32 Oeste 0 -- -- 45
2020-06-16 12:00:00 17.7 18 Oeste 28 Oeste 0 -- -- 51
2020-06-16 11:00:00 16.6 14 Oeste 28 Oeste 0 -- -- 56
2020-06-16 10:00:00 14.6 12 Oeste 19 Oeste 0 -- -- 64
2020-06-16 09:00:00 11.9 14 Noroeste 19 Noroeste 0 -- -- 78
2020-06-16 08:00:00 9.9 14 Oeste 20 Oeste 0 -- -- 82
2020-06-16 07:00:00 8.3 15 Oeste 21 Oeste 0 -- -- 89
2020-06-16 06:00:00 9 15 Oeste 18 Oeste 0 -- -- 87
2020-06-16 05:00:00 10.1 12 Noroeste 20 Oeste 0 -- -- 81
2020-06-16 04:00:00 10.4 13 Noroeste 23 Oeste 0 -- -- 79
2020-06-16 03:00:00 11.5 17 Oeste 24 Oeste 0 -- -- 72
2020-06-16 02:00:00 12.1 14 Oeste 22 Oeste 0 -- -- 73
2020-06-16 01:00:00 12.4 15 Noroeste 22 Noroeste 0 -- -- 71
2020-06-16 00:00:00 13.5 12 Noroeste 23 Oeste 0 -- -- 62
2020-06-15 23:00:00 14.6 18 Oeste 30 Oeste 0 -- -- 57
2020-06-15 22:00:00 15.5 21 Oeste 30 Oeste 0 -- -- 51
2020-06-15 21:00:00 16.7 20 Oeste 32 Oeste 0 -- -- 46
2020-06-15 20:00:00 18.1 18 Oeste 28 Oeste 0 -- -- 41
2020-06-15 19:00:00 19.3 15 Oeste 33 Noroeste 0 -- -- 39
2020-06-15 18:00:00 20.3 16 Oeste 31 Oeste 0 -- -- 37
2020-06-15 17:00:00 20.1 16 Oeste 30 Oeste 0 -- -- 37
2020-06-15 16:00:00 20.2 15 Oeste 32 Oeste 0 -- -- 37
2020-06-15 15:00:00 21.4 10 Sudoeste 32 Sudoeste 0 -- -- 38
2020-06-15 14:00:00 19.6 15 Oeste 30 Oeste 0 -- -- 41
2020-06-15 13:00:00 18.2 11 Oeste 23 Oeste 0 -- -- 45
2020-06-15 12:00:00 16.9 7 Oeste 19 Oeste 0 -- -- 47
2020-06-15 11:00:00 15.1 10 Noroeste 25 Oeste 0 -- -- 54
2020-06-15 10:00:00 13.5 9 Oeste 15 Noroeste 0 -- -- 65
2020-06-15 09:00:00 10.6 10 Oeste 15 Oeste 0 -- -- 75
2020-06-15 08:00:00 9.1 9 Oeste 13 Oeste 0 -- -- 88
2020-06-15 07:00:00 5.3 11 Oeste 12 Oeste 0 -- -- 95
2020-06-15 06:00:00 5 9 Sudoeste 12 Sudoeste 0 -- -- 94
2020-06-15 05:00:00 5.8 9 Sudoeste 13 Sudoeste 0 -- -- 94
2020-06-15 04:00:00 7.8 9 Oeste 17 Oeste 0 -- -- 89
2020-06-15 03:00:00 8.8 14 Noroeste 21 Noroeste 0 -- -- 86
2020-06-15 02:00:00 9.7 11 Noroeste 19 Noroeste 0 -- -- 80
2020-06-15 01:00:00 12.1 14 Oeste 23 Oeste 0 -- -- 68
2020-06-15 00:00:00 13.4 14 Oeste 21 Oeste 0 -- -- 62
2020-06-14 23:00:00 13.7 10 Oeste 13 Oeste 0 -- -- 61
2020-06-14 22:00:00 14.3 8 Noroeste 21 Oeste 0 -- -- 53
2020-06-14 21:00:00 16.7 13 Oeste 45 Noroeste 0 -- -- 44
2020-06-14 20:00:00 17.6 18 Noroeste 26 Oeste 0 -- -- 41
2020-06-14 19:00:00 18.2 19 Oeste 31 Oeste 0 -- -- 37
2020-06-14 18:00:00 18.5 20 Oeste 35 Oeste 0 -- -- 37
2020-06-14 17:00:00 18.6 21 Oeste 35 Oeste 0 -- -- 37
2020-06-14 16:00:00 18.9 20 Oeste 36 Oeste 0 -- -- 36
2020-06-14 15:00:00 19.3 21 Oeste 36 Oeste 0 -- -- 35
2020-06-14 14:00:00 17.8 19 Oeste 35 Noroeste 0 -- -- 38
2020-06-14 13:00:00 17.5 14 Oeste 31 Oeste 0 -- -- 41
2020-06-14 12:00:00 16.3 18 Oeste 32 Oeste 0 -- -- 45
2020-06-14 11:00:00 15.2 14 Oeste 23 Oeste 0 -- -- 56
2020-06-14 10:00:00 13 12 Oeste 18 Oeste 0 -- -- 62
2020-06-14 09:00:00 11 6 Sudoeste 10 Sudoeste 0 -- -- 76
2020-06-14 08:00:00 7.6 5 Oeste 9 Oeste 0 -- -- 92
2020-06-14 07:00:00 5.5 6 Noroeste 10 Oeste 0 -- -- 93
2020-06-14 06:00:00 5.2 9 Oeste 14 Noroeste 0 -- -- 93
2020-06-14 05:00:00 5.4 12 Noroeste 14 Oeste 0 -- -- 91
2020-06-14 04:00:00 5.9 13 Oeste 15 Oeste 0 -- -- 89
2020-06-14 03:00:00 7 11 Oeste 20 Oeste 0 -- -- 85
2020-06-14 02:00:00 8.4 15 Oeste 22 Oeste 0 -- -- 81
2020-06-14 01:00:00 7.8 14 Oeste 19 Oeste 0 -- -- 83
2020-06-14 00:00:00 7.7 9 Sudoeste 18 Oeste 0 -- -- 78
2020-06-13 23:00:00 11.8 16 Oeste 23 Oeste 0 -- -- 59
2020-06-13 22:00:00 12.5 13 Oeste 24 Oeste 0 -- -- 57
2020-06-13 21:00:00 14.6 19 Oeste 31 Oeste 0 -- -- 48
2020-06-13 20:00:00 15.2 20 Oeste 37 Oeste 0 -- -- 48
2020-06-13 19:00:00 16.3 24 Oeste 40 Oeste 0 -- -- 45
2020-06-13 18:00:00 16.7 27 Oeste 40 Oeste 0 -- -- 42
2020-06-13 17:00:00 18 25 Oeste 45 Oeste 0 -- -- 42
2020-06-13 16:00:00 17.2 25 Oeste 36 Oeste 0 -- -- 44
2020-06-13 15:00:00 15.9 21 Oeste 32 Oeste 0 -- -- 47
2020-06-13 14:00:00 15.9 23 Oeste 40 Oeste 0 -- -- 45
2020-06-13 13:00:00 15.9 24 Oeste 37 Oeste 0 -- -- 46
2020-06-13 12:00:00 14.4 26 Oeste 39 Oeste 0 -- -- 55
2020-06-13 11:00:00 12.6 26 Oeste 38 Oeste 0 -- -- 67
2020-06-13 10:00:00 11.3 25 Oeste 37 Oeste 0 -- -- 75
2020-06-13 09:00:00 8.2 22 Oeste 41 Oeste 0 -- -- 90
2020-06-13 08:00:00 7.5 27 Oeste 38 Oeste 0 -- -- 95
2020-06-13 07:00:00 6.8 22 Oeste 31 Oeste 0 -- -- 96
2020-06-13 06:00:00 6.5 21 Oeste 36 Oeste 0 -- -- 97
2020-06-13 05:00:00 7 24 Oeste 35 Oeste 0 -- -- 96
2020-06-13 04:00:00 7.4 25 Oeste 36 Oeste 0 -- -- 96
2020-06-13 03:00:00 7.7 24 Oeste 39 Oeste 0 -- -- 95
2020-06-13 02:00:00 8.3 28 Oeste 38 Oeste 0 -- -- 94
2020-06-13 01:00:00 8.4 25 Oeste 38 Oeste 0 -- -- 94
2020-06-13 00:00:00 8.4 24 Oeste 40 Oeste 0 -- -- 94
2020-06-12 23:00:00 9 26 Oeste 41 Oeste 0 -- -- 90
2020-06-12 22:00:00 9.9 27 Oeste 40 Oeste 0 -- -- 88
2020-06-12 21:00:00 11 28 Oeste 48 Oeste 0 -- -- 78
2020-06-12 20:00:00 11.6 34 Oeste 49 Oeste 0 -- -- 75
2020-06-12 19:00:00 10.5 29 Oeste 49 Oeste 0 -- -- 85
2020-06-12 18:00:00 10.5 32 Oeste 47 Oeste 0.3 -- -- 90
2020-06-12 17:00:00 11.2 26 Oeste 49 Noroeste 0.8 -- -- 91
2020-06-12 16:00:00 12.8 34 Oeste 59 Oeste 0.2 -- -- 60
2020-06-12 15:00:00 14.2 33 Oeste 61 Oeste 0 -- -- 54
2020-06-12 14:00:00 14 35 Oeste 58 Oeste 0 -- -- 51
2020-06-12 13:00:00 13.8 31 Oeste 49 Oeste 0 -- -- 51
2020-06-12 12:00:00 13.4 32 Oeste 49 Oeste 0 -- -- 51
2020-06-12 11:00:00 13 35 Oeste 49 Oeste 0 -- -- 61
2020-06-12 10:00:00 10 33 Oeste 55 Oeste 0 -- -- 74
2020-06-12 09:00:00 9.2 38 Oeste 54 Oeste 0 -- -- 79
2020-06-12 08:00:00 8.3 37 Oeste 51 Oeste 0 -- -- 84
2020-06-12 07:00:00 7.5 32 Oeste 44 Oeste 0 -- -- 83
2020-06-12 06:00:00 7.2 32 Oeste 50 Sudoeste 0 -- -- 79
2020-06-12 05:00:00 7.2 32 Sudoeste 56 Sudoeste 0 -- -- 74
2020-06-12 04:00:00 7.5 32 Sudoeste 47 Sudoeste 0 -- -- 72
2020-06-12 03:00:00 7.4 32 Sudoeste 47 Oeste 0 -- -- 73
2020-06-12 02:00:00 6.5 30 Oeste 44 Oeste 0 -- -- 74
2020-06-12 01:00:00 6.7 21 Oeste 36 Sudoeste 0 -- -- 76
2020-06-12 00:00:00 6.8 15 Oeste 22 Oeste 0 -- -- 74
2020-06-11 23:00:00 7.4 17 Oeste 26 Noroeste 0 -- -- 67
2020-06-11 22:00:00 9.4 24 Noroeste 41 Noroeste 0 -- -- 56
2020-06-11 21:00:00 12 31 Noroeste 45 Oeste 0 -- -- 47
2020-06-11 20:00:00 15.5 31 Oeste 62 Oeste 0 -- -- 41
2020-06-11 19:00:00 17.6 29 Oeste 48 Oeste 0 -- -- 43
2020-06-11 18:00:00 16.5 33 Oeste 62 Oeste 0 -- -- 44
2020-06-11 17:00:00 17.5 41 Oeste 59 Oeste 0 -- -- 41
2020-06-11 16:00:00 18.8 42 Oeste 62 Oeste 0 -- -- 38
2020-06-11 15:00:00 16.8 33 Oeste 51 Oeste 0 -- -- 45
2020-06-11 14:00:00 17.1 36 Oeste 51 Oeste 0 -- -- 45
2020-06-11 13:00:00 17.4 20 Oeste 38 Oeste 0 -- -- 44
2020-06-11 12:00:00 15.7 27 Oeste 40 Oeste 0 -- -- 50
2020-06-11 11:00:00 15.3 24 Oeste 37 Oeste 0 -- -- 54
2020-06-11 10:00:00 14.9 20 Oeste 31 Noroeste 0 -- -- 63
2020-06-11 09:00:00 13.1 21 Oeste 29 Oeste 0 -- -- 71
2020-06-11 08:00:00 10.3 15 Oeste 20 Oeste 0 -- -- 90
2020-06-11 07:00:00 8.1 9 Oeste 14 Oeste 0 -- -- 98
2020-06-11 06:00:00 6.8 8 Oeste 12 Oeste 0 -- -- 98
2020-06-11 05:00:00 6.1 7 Oeste 8 Oeste 0 -- -- 97
2020-06-11 04:00:00 6.6 5 Noroeste 8 Este 0 -- -- 97
2020-06-11 03:00:00 8.1 5 Nordeste 15 Nordeste 0 -- -- 97
2020-06-11 02:00:00 9.4 12 Nordeste 18 Nordeste 0 -- -- 94
2020-06-11 01:00:00 10.9 13 Nordeste 21 Nordeste 0 -- -- 86
2020-06-11 00:00:00 13.8 12 Este 15 Este 0 -- -- 61
2020-06-10 23:00:00 15.1 12 Este 19 Este 0 -- -- 54
2020-06-10 22:00:00 16.4 8 Este 10 Este 0 -- -- 44
2020-06-10 21:00:00 19.3 5 Noroeste 13 Oeste 0 -- -- 35
2020-06-10 20:00:00 20.2 10 Oeste 22 Noroeste 0 -- -- 30
2020-06-10 19:00:00 20.6 12 Noroeste 28 Oeste 0 -- -- 30
2020-06-10 18:00:00 21.4 13 Noroeste 28 Oeste 0 -- -- 30
2020-06-10 17:00:00 21 9 Noroeste 27 Oeste 0 -- -- 31
2020-06-10 16:00:00 21.7 13 Oeste 24 Oeste 0 -- -- 30
2020-06-10 15:00:00 21.6 8 Oeste 25 Oeste 0 -- -- 33
2020-06-10 14:00:00 19.7 10 Noroeste 21 Oeste 0 -- -- 35
2020-06-10 13:00:00 19 3 Noroeste 19 Norte 0 -- -- 40
2020-06-10 12:00:00 17.1 3 Este 17 Este 0 -- -- 44
2020-06-10 11:00:00 15 9 Este 18 Este 0 -- -- 53
2020-06-10 10:00:00 12.1 10 Nordeste 19 Este 0 -- -- 66
2020-06-10 09:00:00 8.6 12 Este 17 Este 0 -- -- 78
2020-06-10 08:00:00 7.1 4 Este 17 Este 0 -- -- 90
2020-06-10 07:00:00 5.7 14 Este 20 Este 0 -- -- 91
2020-06-10 06:00:00 5.2 13 Este 18 Este 0 -- -- 91
2020-06-10 05:00:00 5.7 14 Este 23 Este 0 -- -- 91
2020-06-10 04:00:00 5.8 16 Este 21 Este 0 -- -- 89
2020-06-10 03:00:00 6.1 18 Este 22 Este 0 -- -- 88
2020-06-10 02:00:00 7.2 16 Este 27 Este 0 -- -- 81
2020-06-10 01:00:00 7.7 16 Este 27 Este 0 -- -- 80
2020-06-10 00:00:00 9 18 Este 33 Este 0 -- -- 72
2020-06-09 23:00:00 10 17 Este 24 Este 0 -- -- 64
2020-06-09 22:00:00 11.6 14 Este 22 Este 0 -- -- 52
2020-06-09 21:00:00 15.3 15 Este 23 Este 0 -- -- 41
2020-06-09 20:00:00 15.6 16 Nordeste 26 Este 0 -- -- 39
2020-06-09 19:00:00 15.3 14 Este 26 Este 0 -- -- 39
2020-06-09 18:00:00 16.7 6 Nordeste 23 Este 0 -- -- 37
2020-06-09 17:00:00 16.7 7 Nordeste 24 Nordeste 0 -- -- 37
2020-06-09 16:00:00 16.7 7 Nordeste 18 Nordeste 0 -- -- 36
2020-06-09 15:00:00 15.7 6 Norte 18 Norte 0 -- -- 37
2020-06-09 14:00:00 15.2 7 Norte 24 Nordeste 0 -- -- 39
2020-06-09 13:00:00 15.3 8 Nordeste 19 Norte 0 -- -- 43
2020-06-09 12:00:00 13.5 9 Noroeste 19 Noroeste 0 -- -- 47
2020-06-09 11:00:00 12.9 6 Nordeste 14 Este 0 -- -- 52
2020-06-09 10:00:00 10.5 9 Nordeste 15 Nordeste 0 -- -- 68
2020-06-09 09:00:00 8.1 4 Nordeste 12 Norte 0 -- -- 85
2020-06-09 08:00:00 6.9 3 Nordeste 10 Nordeste 0 -- -- 91
2020-06-09 07:00:00 6.1 7 Nordeste 12 Nordeste 0 -- -- 95
2020-06-09 06:00:00 4.6 6 Este 13 Nordeste 0 -- -- 94
2020-06-09 05:00:00 4.7 11 Este 15 Este 0 -- -- 94
2020-06-09 04:00:00 4.5 12 Este 14 Este 0 -- -- 93
2020-06-09 03:00:00 5.4 11 Este 18 Este 0 -- -- 90
2020-06-09 02:00:00 5.8 12 Este 19 Este 0 -- -- 88
2020-06-09 01:00:00 6.5 13 Este 25 Este 0 -- -- 84
2020-06-09 00:00:00 7.5 13 Este 25 Este 0 -- -- 78